PHMOP EHRD-EHRD
Flight info
| Callsign | PHMOP |
|---|---|
| Flight time | 0h 19m |
| Altitude | 1000 |
| Route | VFR |
| Aircraft | BE36/L-BDFGLORY/S |
Departure
| Time | 2026-04-28 17:59 |
|---|---|
| Airport | Rotterdam The Hague Airport (EHRD) |
Arrival
| Time | 2026-04-28 18:19 |
|---|---|
| Airport | Rotterdam The Hague Airport (EHRD) |
| Time | Latitude | Longitude | Altitude | Speed | Heading |
|---|---|---|---|---|---|
| 2026-04-28 17:42 | 51.94910 | 4.42651 | -5 ft | 0 kts | 234° |
| 2026-04-28 17:53 | 51.94906 | 4.42641 | -5 ft | 3 kts | 253° |
| 2026-04-28 17:53 | 51.94927 | 4.42634 | -5 ft | 4 kts | 59° |
| 2026-04-28 17:53 | 51.94939 | 4.42668 | -5 ft | 2 kts | 58° |
| 2026-04-28 17:53 | 51.94943 | 4.42678 | -5 ft | 4 kts | 57° |
| 2026-04-28 17:54 | 51.94973 | 4.42720 | -5 ft | 6 kts | 6° |
| 2026-04-28 17:54 | 51.95000 | 4.42764 | -5 ft | 7 kts | 57° |
| 2026-04-28 17:54 | 51.95030 | 4.42840 | -5 ft | 8 kts | 57° |
| 2026-04-28 17:54 | 51.95061 | 4.42920 | -5 ft | 8 kts | 58° |
| 2026-04-28 17:55 | 51.95095 | 4.43003 | -5 ft | 9 kts | 56° |
| 2026-04-28 17:55 | 51.95129 | 4.43090 | -5 ft | 9 kts | 60° |
| 2026-04-28 17:55 | 51.95175 | 4.43099 | -5 ft | 7 kts | 341° |
| 2026-04-28 17:55 | 51.95185 | 4.43095 | -5 ft | 0 kts | 348° |
| 2026-04-28 17:58 | 51.95224 | 4.43101 | -5 ft | 9 kts | 2° |
| 2026-04-28 17:58 | 51.95305 | 4.43117 | -4 ft | 14 kts | 24° |
| 2026-04-28 17:59 | 51.95382 | 4.43254 | -6 ft | 31 kts | 57° |
| 2026-04-28 17:59 | 51.95598 | 4.43819 | 137 ft | 74 kts | 58° |
| 2026-04-28 17:59 | 51.95890 | 4.44598 | 474 ft | 82 kts | 51° |
| 2026-04-28 17:59 | 51.96263 | 4.45311 | 659 ft | 88 kts | 52° |
| 2026-04-28 18:00 | 51.96702 | 4.46153 | 760 ft | 106 kts | 54° |
| 2026-04-28 18:00 | 51.97152 | 4.47126 | 973 ft | 109 kts | 53° |
| 2026-04-28 18:00 | 51.97855 | 4.47591 | 1031 ft | 131 kts | 356° |
| 2026-04-28 18:00 | 51.98542 | 4.46500 | 967 ft | 162 kts | 297° |
| 2026-04-28 18:01 | 51.98496 | 4.44776 | 1069 ft | 163 kts | 240° |
| 2026-04-28 18:01 | 51.97867 | 4.43240 | 1164 ft | 158 kts | 232° |
| 2026-04-28 18:01 | 51.97221 | 4.41776 | 1114 ft | 154 kts | 231° |
| 2026-04-28 18:01 | 51.96597 | 4.40419 | 1034 ft | 147 kts | 229° |
| 2026-04-28 18:02 | 51.95963 | 4.39127 | 949 ft | 144 kts | 225° |
| 2026-04-28 18:02 | 51.95273 | 4.37995 | 915 ft | 139 kts | 217° |
| 2026-04-28 18:02 | 51.94450 | 4.37345 | 798 ft | 127 kts | 172° |
| 2026-04-28 18:02 | 51.93730 | 4.37637 | 754 ft | 95 kts | 127° |
| 2026-04-28 18:03 | 51.93538 | 4.38438 | 609 ft | 72 kts | 70° |
| 2026-04-28 18:03 | 51.93815 | 4.39209 | 499 ft | 88 kts | 60° |
| 2026-04-28 18:03 | 51.94130 | 4.40053 | 412 ft | 86 kts | 59° |
| 2026-04-28 18:03 | 51.94405 | 4.40785 | 338 ft | 65 kts | 58° |
| 2026-04-28 18:04 | 51.94640 | 4.41401 | 249 ft | 65 kts | 54° |
| 2026-04-28 18:04 | 51.94897 | 4.42025 | 176 ft | 68 kts | 55° |
| 2026-04-28 18:04 | 51.95158 | 4.42686 | 96 ft | 69 kts | 55° |
| 2026-04-28 18:04 | 51.95382 | 4.43257 | 10 ft | 54 kts | 54° |
| 2026-04-28 18:05 | 51.95575 | 4.43733 | -5 ft | 61 kts | 58° |
| 2026-04-28 18:05 | 51.95753 | 4.44180 | 101 ft | 79 kts | 55° |
| 2026-04-28 18:05 | 51.96244 | 4.45105 | 358 ft | 84 kts | 27° |
| 2026-04-28 18:05 | 51.96852 | 4.44776 | 433 ft | 110 kts | 318° |
| 2026-04-28 18:06 | 51.96815 | 4.43563 | 374 ft | 134 kts | 216° |
| 2026-04-28 18:06 | 51.96238 | 4.42397 | 494 ft | 136 kts | 238° |
| 2026-04-28 18:06 | 51.95724 | 4.41054 | 526 ft | 144 kts | 239° |
| 2026-04-28 18:06 | 51.95191 | 4.39702 | 512 ft | 140 kts | 233° |
| 2026-04-28 18:07 | 51.94428 | 4.39218 | 532 ft | 108 kts | 149° |
| 2026-04-28 18:07 | 51.94073 | 4.39964 | 465 ft | 76 kts | 76° |
| 2026-04-28 18:07 | 51.94340 | 4.40643 | 320 ft | 66 kts | 55° |
| 2026-04-28 18:07 | 51.94581 | 4.41287 | 230 ft | 68 kts | 57° |
| 2026-04-28 18:08 | 51.94840 | 4.41943 | 165 ft | 69 kts | 52° |
| 2026-04-28 18:08 | 51.95114 | 4.42592 | 67 ft | 72 kts | 56° |
| 2026-04-28 18:08 | 51.95382 | 4.43255 | 4 ft | 68 kts | 56° |
| 2026-04-28 18:08 | 51.95628 | 4.43873 | 18 ft | 79 kts | 56° |
| 2026-04-28 18:09 | 51.95954 | 4.44682 | 162 ft | 89 kts | 55° |
| 2026-04-28 18:09 | 51.96475 | 4.44885 | 265 ft | 109 kts | 329° |
| 2026-04-28 18:09 | 51.96511 | 4.43728 | 432 ft | 124 kts | 243° |
| 2026-04-28 18:09 | 51.96047 | 4.42490 | 472 ft | 136 kts | 235° |
| 2026-04-28 18:10 | 51.95484 | 4.41207 | 497 ft | 144 kts | 233° |
| 2026-04-28 18:10 | 51.94866 | 4.39926 | 562 ft | 148 kts | 230° |
| 2026-04-28 18:10 | 51.94198 | 4.38610 | 573 ft | 153 kts | 226° |
| 2026-04-28 18:10 | 51.93491 | 4.37317 | 554 ft | 154 kts | 224° |
| 2026-04-28 18:11 | 51.92710 | 4.36500 | 836 ft | 117 kts | 152° |
| 2026-04-28 18:11 | 51.92758 | 4.37386 | 689 ft | 109 kts | 39° |
| 2026-04-28 18:11 | 51.93328 | 4.38084 | 705 ft | 99 kts | 54° |
| 2026-04-28 18:11 | 51.93700 | 4.38953 | 587 ft | 90 kts | 62° |
| 2026-04-28 18:12 | 51.94051 | 4.39894 | 502 ft | 103 kts | 60° |
| 2026-04-28 18:12 | 51.94379 | 4.40761 | 364 ft | 77 kts | 55° |
| 2026-04-28 18:12 | 51.94649 | 4.41436 | 240 ft | 73 kts | 53° |
| 2026-04-28 18:12 | 51.94935 | 4.42132 | 153 ft | 69 kts | 54° |
| 2026-04-28 18:13 | 51.95177 | 4.42737 | 54 ft | 65 kts | 54° |
| 2026-04-28 18:13 | 51.95401 | 4.43312 | 4 ft | 51 kts | 57° |
| 2026-04-28 18:13 | 51.95583 | 4.43760 | 0 ft | 64 kts | 56° |
| 2026-04-28 18:13 | 51.95858 | 4.44500 | 216 ft | 89 kts | 59° |
| 2026-04-28 18:14 | 51.96267 | 4.45187 | 396 ft | 100 kts | 358° |
| 2026-04-28 18:14 | 51.96269 | 4.44132 | 414 ft | 123 kts | 232° |
| 2026-04-28 18:14 | 51.95738 | 4.42950 | 424 ft | 135 kts | 233° |
| 2026-04-28 18:14 | 51.95195 | 4.41647 | 369 ft | 140 kts | 239° |
| 2026-04-28 18:15 | 51.94676 | 4.40308 | 386 ft | 142 kts | 240° |
| 2026-04-28 18:15 | 51.94015 | 4.39728 | 443 ft | 97 kts | 129° |
| 2026-04-28 18:15 | 51.94153 | 4.40488 | 422 ft | 94 kts | 41° |
| 2026-04-28 18:15 | 51.94560 | 4.41262 | 292 ft | 85 kts | 52° |
| 2026-04-28 18:16 | 51.94877 | 4.42006 | 184 ft | 76 kts | 57° |
| 2026-04-28 18:16 | 51.95156 | 4.42690 | 96 ft | 70 kts | 53° |
| 2026-04-28 18:16 | 51.95428 | 4.43378 | 245 ft | 75 kts | 57° |
| 2026-04-28 18:16 | 51.95787 | 4.44241 | 397 ft | 105 kts | 53° |
| 2026-04-28 18:17 | 51.96426 | 4.44163 | 528 ft | 129 kts | 296° |
| 2026-04-28 18:17 | 51.96115 | 4.42913 | 532 ft | 125 kts | 230° |
| 2026-04-28 18:17 | 51.95561 | 4.41783 | 492 ft | 132 kts | 231° |
| 2026-04-28 18:17 | 51.94962 | 4.40628 | 489 ft | 132 kts | 223° |
| 2026-04-28 18:18 | 51.94277 | 4.40591 | 391 ft | 80 kts | 90° |
| 2026-04-28 18:18 | 51.94574 | 4.41251 | 265 ft | 81 kts | 50° |
| 2026-04-28 18:18 | 51.94869 | 4.41973 | 178 ft | 79 kts | 56° |
| 2026-04-28 18:18 | 51.95045 | 4.42410 | 105 ft | 62 kts | 54° |
| 2026-04-28 18:19 | 51.95353 | 4.43182 | 6 ft | 57 kts | 54° |
| 2026-04-28 18:19 | 51.95518 | 4.43596 | -7 ft | 48 kts | 57° |
| 2026-04-28 18:19 | 51.95777 | 4.44261 | 154 ft | 86 kts | 57° |
| 2026-04-28 18:19 | 51.96267 | 4.44324 | 345 ft | 105 kts | 319° |
| 2026-04-28 18:20 | 51.96239 | 4.43114 | 498 ft | 118 kts | 242° |
| 2026-04-28 18:20 | 51.95802 | 4.41905 | 539 ft | 131 kts | 236° |
| 2026-04-28 18:20 | 51.95261 | 4.40647 | 549 ft | 138 kts | 234° |
| 2026-04-28 18:20 | 51.94491 | 4.40217 | 541 ft | 106 kts | 143° |
| 2026-04-28 18:21 | 51.94443 | 4.41017 | 330 ft | 81 kts | 48° |
| 2026-04-28 18:21 | 51.94792 | 4.41783 | 189 ft | 86 kts | 54° |
| 2026-04-28 18:21 | 51.95124 | 4.42598 | 71 ft | 83 kts | 55° |
| 2026-04-28 18:21 | 51.95365 | 4.43208 | -4 ft | 48 kts | 56° |
| 2026-04-28 18:22 | 51.95549 | 4.43671 | 4 ft | 68 kts | 54° |
| 2026-04-28 18:22 | 51.95850 | 4.44448 | 192 ft | 96 kts | 56° |
| 2026-04-28 18:22 | 51.96436 | 4.44474 | 444 ft | 139 kts | 297° |
| 2026-04-28 18:22 | 51.96110 | 4.42910 | 574 ft | 166 kts | 237° |
| 2026-04-28 18:23 | 51.95518 | 4.41449 | 549 ft | 149 kts | 236° |
| 2026-04-28 18:23 | 51.94832 | 4.40321 | 467 ft | 130 kts | 189° |
| 2026-04-28 18:23 | 51.94363 | 4.40854 | 289 ft | 75 kts | 59° |
| 2026-04-28 18:23 | 51.94644 | 4.41447 | 207 ft | 63 kts | 52° |
| 2026-04-28 18:24 | 51.94898 | 4.42047 | 136 ft | 68 kts | 54° |
| 2026-04-28 18:24 | 51.95069 | 4.42469 | 87 ft | 68 kts | 54° |
| 2026-04-28 18:24 | 51.95376 | 4.43235 | 1 ft | 46 kts | 56° |
| 2026-04-28 18:24 | 51.95507 | 4.43567 | -7 ft | 28 kts | 57° |
| 2026-04-28 18:25 | 51.95611 | 4.43831 | -5 ft | 30 kts | 56° |
| 2026-04-28 18:25 | 51.95751 | 4.44181 | -6 ft | 45 kts | 56° |
| 2026-04-28 18:25 | 51.95910 | 4.44586 | -7 ft | 33 kts | 69° |
| 2026-04-28 18:26 | 51.95834 | 4.44751 | -5 ft | 0 kts | 154° |
| 2026-04-28 18:29 | 51.95811 | 4.44759 | -5 ft | 10 kts | 176° |
| 2026-04-28 18:30 | 51.95739 | 4.44637 | -5 ft | 21 kts | 236° |
| 2026-04-28 18:30 | 51.95711 | 4.44567 | -5 ft | 25 kts | 237° |
| 2026-04-28 18:30 | 51.95535 | 4.44129 | -5 ft | 28 kts | 238° |
| 2026-04-28 18:30 | 51.95447 | 4.43910 | -5 ft | 19 kts | 237° |
| 2026-04-28 18:31 | 51.95370 | 4.43720 | -5 ft | 21 kts | 237° |
| 2026-04-28 18:31 | 51.95306 | 4.43557 | -5 ft | 14 kts | 236° |
| 2026-04-28 18:31 | 51.95251 | 4.43420 | -5 ft | 16 kts | 241° |
| 2026-04-28 18:31 | 51.95191 | 4.43270 | -5 ft | 15 kts | 238° |
| 2026-04-28 18:32 | 51.95154 | 4.43167 | -5 ft | 10 kts | 256° |
| 2026-04-28 18:32 | 51.95185 | 4.43098 | -5 ft | 7 kts | 347° |
| 2026-04-28 18:32 | 51.95231 | 4.43103 | -5 ft | 21 kts | 6° |
| 2026-04-28 18:32 | 51.95340 | 4.43158 | -4 ft | 14 kts | 44° |
| 2026-04-28 18:33 | 51.95364 | 4.43211 | -5 ft | 0 kts | 55° |
| 2026-04-28 18:33 | 51.95432 | 4.43381 | -6 ft | 55 kts | 57° |
| 2026-04-28 18:33 | 51.95732 | 4.44107 | 128 ft | 90 kts | 56° |
| 2026-04-28 18:34 | 51.96251 | 4.44446 | 340 ft | 121 kts | 330° |
| 2026-04-28 18:34 | 51.96056 | 4.43081 | 556 ft | 144 kts | 224° |
| 2026-04-28 18:34 | 51.95509 | 4.41721 | 523 ft | 145 kts | 239° |
| 2026-04-28 18:34 | 51.94977 | 4.40370 | 491 ft | 143 kts | 234° |
| 2026-04-28 18:35 | 51.94266 | 4.40187 | 429 ft | 93 kts | 103° |
| 2026-04-28 18:35 | 51.94454 | 4.40961 | 284 ft | 76 kts | 53° |
| 2026-04-28 18:35 | 51.94769 | 4.41694 | 186 ft | 80 kts | 56° |
| 2026-04-28 18:35 | 51.95017 | 4.42334 | 104 ft | 62 kts | 56° |
| 2026-04-28 18:36 | 51.95261 | 4.42949 | 24 ft | 66 kts | 57° |
| 2026-04-28 18:36 | 51.95471 | 4.43481 | -6 ft | 42 kts | 58° |
| 2026-04-28 18:36 | 51.95680 | 4.44002 | 65 ft | 75 kts | 57° |
| 2026-04-28 18:36 | 51.96018 | 4.44592 | 307 ft | 77 kts | 10° |
| 2026-04-28 18:37 | 51.96110 | 4.43642 | 389 ft | 115 kts | 240° |
| 2026-04-28 18:37 | 51.95617 | 4.42557 | 466 ft | 123 kts | 234° |
| 2026-04-28 18:37 | 51.95076 | 4.41371 | 494 ft | 133 kts | 232° |
| 2026-04-28 18:37 | 51.94548 | 4.40170 | 593 ft | 135 kts | 234° |
| 2026-04-28 18:38 | 51.94013 | 4.38922 | 535 ft | 133 kts | 234° |
| 2026-04-28 18:38 | 51.93456 | 4.37934 | 617 ft | 105 kts | 186° |
| 2026-04-28 18:38 | 51.93341 | 4.38548 | 547 ft | 90 kts | 44° |
| 2026-04-28 18:38 | 51.93801 | 4.39335 | 485 ft | 96 kts | 54° |
| 2026-04-28 18:39 | 51.94169 | 4.40217 | 374 ft | 93 kts | 55° |
| 2026-04-28 18:39 | 51.94497 | 4.41040 | 252 ft | 85 kts | 56° |
| 2026-04-28 18:39 | 51.94822 | 4.41846 | 156 ft | 84 kts | 57° |
| 2026-04-28 18:39 | 51.95121 | 4.42591 | 54 ft | 82 kts | 56° |
| 2026-04-28 18:40 | 51.95369 | 4.43222 | -2 ft | 54 kts | 59° |
| 2026-04-28 18:40 | 51.95634 | 4.43859 | 131 ft | 83 kts | 57° |
| 2026-04-28 18:40 | 51.95986 | 4.44735 | 355 ft | 100 kts | 56° |
| 2026-04-28 18:40 | 51.96356 | 4.45657 | 503 ft | 95 kts | 57° |
| 2026-04-28 18:41 | 51.96842 | 4.46132 | 538 ft | 101 kts | 341° |
| 2026-04-28 18:41 | 51.97362 | 4.45327 | 511 ft | 103 kts | 325° |
| 2026-04-28 18:41 | 51.97364 | 4.44248 | 468 ft | 118 kts | 231° |
| 2026-04-28 18:41 | 51.96791 | 4.43265 | 420 ft | 127 kts | 221° |
| 2026-04-28 18:42 | 51.96110 | 4.42196 | 434 ft | 141 kts | 224° |
| 2026-04-28 18:42 | 51.95426 | 4.41068 | 406 ft | 143 kts | 223° |
| 2026-04-28 18:42 | 51.94639 | 4.40345 | 353 ft | 116 kts | 155° |
| 2026-04-28 18:42 | 51.94466 | 4.41020 | 230 ft | 68 kts | 56° |
| 2026-04-28 18:43 | 51.94780 | 4.41713 | 184 ft | 75 kts | 56° |
| 2026-04-28 18:43 | 51.95034 | 4.42373 | 95 ft | 68 kts | 58° |
| 2026-04-28 18:43 | 51.95282 | 4.43006 | 19 ft | 60 kts | 57° |
| 2026-04-28 18:43 | 51.95464 | 4.43463 | -6 ft | 37 kts | 57° |
| 2026-04-28 18:44 | 51.95704 | 4.44063 | 95 ft | 83 kts | 56° |
| 2026-04-28 18:44 | 51.95672 | 4.42651 | 525 ft | 137 kts | 233° |
| 2026-04-28 18:44 | 51.95116 | 4.41323 | 484 ft | 148 kts | 238° |
| 2026-04-28 18:45 | 51.94531 | 4.40022 | 530 ft | 133 kts | 204° |
| 2026-04-28 18:45 | 51.93887 | 4.40173 | 615 ft | 77 kts | 83° |
| 2026-04-28 18:45 | 51.94241 | 4.40840 | 436 ft | 85 kts | 44° |
| 2026-04-28 18:45 | 51.94658 | 4.41549 | 272 ft | 86 kts | 51° |
| 2026-04-28 18:46 | 51.94987 | 4.42264 | 104 ft | 73 kts | 57° |
| 2026-04-28 18:46 | 51.95231 | 4.42875 | 27 ft | 59 kts | 57° |
| 2026-04-28 18:46 | 51.95417 | 4.43347 | -6 ft | 37 kts | 58° |
| 2026-04-28 18:46 | 51.95647 | 4.43913 | 64 ft | 80 kts | 58° |
| 2026-04-28 18:47 | 51.95971 | 4.44786 | 269 ft | 94 kts | 57° |
| 2026-04-28 18:47 | 51.96311 | 4.45697 | 370 ft | 96 kts | 57° |
| 2026-04-28 18:47 | 51.96671 | 4.46579 | 494 ft | 92 kts | 57° |
| 2026-04-28 18:47 | 51.97058 | 4.47413 | 534 ft | 93 kts | 44° |
| 2026-04-28 18:48 | 51.97575 | 4.46830 | 499 ft | 137 kts | 261° |
| 2026-04-28 18:48 | 51.97109 | 4.45481 | 404 ft | 139 kts | 236° |
| 2026-04-28 18:48 | 51.96580 | 4.44164 | 393 ft | 141 kts | 237° |
| 2026-04-28 18:48 | 51.96216 | 4.43276 | 377 ft | 147 kts | 238° |
| 2026-04-28 18:49 | 51.95452 | 4.41422 | 442 ft | 145 kts | 235° |
| 2026-04-28 18:49 | 51.95262 | 4.40959 | 389 ft | 145 kts | 235° |
| 2026-04-28 18:49 | 51.94299 | 4.40300 | 260 ft | 80 kts | 82° |
| 2026-04-28 18:49 | 51.94547 | 4.41133 | 225 ft | 90 kts | 56° |
| 2026-04-28 18:50 | 51.94826 | 4.41831 | 141 ft | 68 kts | 57° |
| 2026-04-28 18:50 | 51.95004 | 4.42289 | 99 ft | 75 kts | 57° |
| 2026-04-28 18:50 | 51.95288 | 4.43001 | 44 ft | 67 kts | 59° |
| 2026-04-28 18:50 | 51.95480 | 4.43505 | -6 ft | 31 kts | 62° |
| 2026-04-28 18:51 | 51.95448 | 4.43568 | -6 ft | 11 kts | 212° |
| 2026-04-28 18:51 | 51.95367 | 4.43475 | -5 ft | 19 kts | 213° |
| 2026-04-28 18:51 | 51.95289 | 4.43408 | -5 ft | 6 kts | 182° |
| 2026-04-28 18:51 | 51.95276 | 4.43409 | -5 ft | 0 kts | 172° |
| 2026-04-28 18:52 | 51.95274 | 4.43409 | -5 ft | 3 kts | 172° |
| 2026-04-28 18:52 | 51.95230 | 4.43371 | -5 ft | 12 kts | 241° |
| 2026-04-28 18:52 | 51.95171 | 4.43220 | -5 ft | 18 kts | 237° |
| 2026-04-28 18:53 | 51.95111 | 4.43032 | -5 ft | 19 kts | 240° |
| 2026-04-28 18:53 | 51.95046 | 4.42881 | -5 ft | 15 kts | 237° |
| 2026-04-28 18:53 | 51.94999 | 4.42762 | -5 ft | 6 kts | 237° |
| 2026-04-28 18:53 | 51.95004 | 4.42742 | -5 ft | 0 kts | 322° |